createdAt,value
2018-03-28T00:01:50.834Z,94.87
2018-03-28T00:04:25.832Z,94.49
2018-03-28T00:07:00.948Z,94.54
2018-03-28T00:09:36.379Z,94.69
2018-03-28T00:12:11.735Z,94.46
2018-03-28T00:14:46.180Z,94.53
2018-03-28T00:17:21.522Z,94.54
2018-03-28T00:19:56.596Z,94.54
2018-03-28T00:22:31.551Z,94.34
2018-03-28T00:25:06.779Z,94.24
2018-03-28T00:27:41.667Z,94.00
2018-03-28T00:30:16.989Z,94.28
2018-03-28T00:32:52.492Z,94.53
2018-03-28T00:35:27.731Z,94.34
2018-03-28T00:38:02.276Z,94.37
2018-03-28T00:40:37.126Z,94.30
2018-03-28T00:43:11.996Z,94.50
2018-03-28T00:45:48.572Z,94.51
2018-03-28T00:48:23.568Z,94.53
2018-03-28T00:50:57.987Z,94.59
2018-03-28T00:53:33.526Z,94.52
2018-03-28T00:56:08.709Z,94.63
2018-03-28T00:58:43.491Z,94.69
2018-03-28T01:01:18.505Z,94.73
2018-03-28T01:03:53.660Z,94.71
2018-03-28T01:06:28.552Z,94.62
2018-03-28T01:09:03.232Z,94.48
2018-03-28T01:11:38.557Z,94.42
2018-03-28T01:14:13.659Z,94.48
2018-03-28T01:16:53.773Z,94.58
2018-03-28T01:19:28.790Z,94.42
2018-03-28T01:22:03.348Z,94.18
2018-03-28T01:24:38.244Z,94.22
2018-03-28T01:27:13.097Z,94.18
2018-03-28T01:29:48.734Z,93.94
2018-03-28T01:32:23.924Z,93.89
2018-03-28T01:34:58.759Z,93.99
2018-03-28T01:37:33.763Z,94.14
2018-03-28T01:40:08.679Z,93.95
2018-03-28T01:42:43.788Z,93.88
2018-03-28T01:45:18.680Z,93.77
2018-03-28T01:47:53.754Z,93.67
2018-03-28T01:50:28.711Z,93.92
2018-03-28T01:53:03.906Z,94.26
2018-03-28T01:55:38.683Z,94.39
2018-03-28T01:58:13.661Z,94.48
2018-03-28T02:00:48.607Z,94.52
2018-03-28T02:03:23.207Z,94.59
2018-03-28T02:05:58.143Z,94.61
2018-03-28T02:08:32.867Z,94.46
2018-03-28T02:11:07.943Z,94.26
2018-03-28T02:13:42.803Z,94.27
2018-03-28T02:16:17.511Z,94.38
2018-03-28T02:18:52.824Z,94.43
2018-03-28T02:21:27.662Z,94.40
2018-03-28T02:24:02.819Z,94.32
2018-03-28T02:26:37.748Z,94.27
2018-03-28T02:29:13.024Z,94.21
2018-03-28T02:31:47.957Z,94.07
2018-03-28T02:34:22.876Z,93.85
2018-03-28T02:36:58.716Z,93.81
2018-03-28T02:39:33.539Z,93.71
2018-03-28T02:42:08.388Z,93.66
2018-03-28T02:44:43.120Z,93.58
2018-03-28T02:47:18.252Z,93.49
2018-03-28T02:49:52.999Z,93.36
2018-03-28T02:52:28.013Z,93.49
2018-03-28T02:55:03.152Z,93.43
2018-03-28T02:57:38.003Z,93.37
2018-03-28T03:00:12.803Z,93.37
2018-03-28T03:02:47.851Z,93.38
2018-03-28T03:05:22.459Z,93.30
2018-03-28T03:07:57.871Z,93.22
2018-03-28T03:10:33.022Z,93.24
2018-03-28T03:13:07.899Z,93.24
2018-03-28T03:15:43.012Z,93.06
2018-03-28T03:18:17.996Z,92.88
2018-03-28T03:20:53.001Z,92.69
2018-03-28T03:23:28.204Z,92.53
2018-03-28T03:26:02.588Z,92.51
2018-03-28T03:28:37.385Z,92.69
2018-03-28T03:31:12.284Z,93.10
2018-03-28T03:33:47.510Z,93.44
2018-03-28T03:36:22.312Z,93.58
2018-03-28T03:38:57.255Z,93.61
2018-03-28T03:41:32.032Z,93.69
2018-03-28T03:44:07.143Z,93.86
2018-03-28T03:46:42.176Z,93.81
2018-03-28T03:49:17.620Z,93.70
2018-03-28T03:51:52.983Z,93.73
2018-03-28T03:54:27.591Z,94.02
2018-03-28T03:57:02.480Z,94.19
2018-03-28T03:59:37.396Z,94.25
2018-03-28T04:02:12.571Z,94.27
2018-03-28T04:04:47.251Z,94.13
2018-03-28T04:07:22.623Z,94.00
2018-03-28T04:09:57.342Z,94.07
2018-03-28T04:12:32.146Z,94.15
2018-03-28T04:15:07.999Z,94.17
2018-03-28T04:17:47.062Z,94.21
2018-03-28T04:20:22.166Z,94.30
2018-03-28T04:22:57.191Z,94.32
2018-03-28T04:25:32.173Z,94.46
2018-03-28T04:28:07.146Z,94.53
2018-03-28T04:30:42.048Z,94.60
2018-03-28T04:33:17.247Z,94.76
2018-03-28T04:35:52.790Z,94.86
2018-03-28T04:38:27.437Z,94.79
2018-03-28T04:41:02.321Z,94.79
2018-03-28T04:43:37.436Z,95.42
2018-03-28T04:46:12.434Z,96.66
2018-03-28T04:48:47.418Z,97.21
2018-03-28T04:51:22.512Z,97.50
2018-03-28T04:53:57.419Z,97.13
2018-03-28T04:56:32.408Z,96.79
2018-03-28T04:59:07.736Z,96.20
2018-03-28T05:01:42.621Z,96.00
2018-03-28T05:04:17.904Z,95.46
2018-03-28T05:06:53.056Z,95.27
2018-03-28T05:09:28.364Z,95.27
2018-03-28T05:12:03.485Z,95.60
2018-03-28T05:14:38.580Z,95.55
2018-03-28T05:17:14.196Z,95.26
2018-03-28T05:19:48.792Z,95.08
2018-03-28T05:22:24.198Z,95.13
2018-03-28T05:24:58.842Z,95.17
2018-03-28T05:27:33.780Z,94.99
2018-03-28T05:30:09.134Z,94.89
2018-03-28T05:32:43.561Z,94.69
2018-03-28T05:35:19.316Z,94.70
2018-03-28T05:37:54.506Z,94.88
2018-03-28T05:40:29.666Z,94.67
2018-03-28T05:43:05.187Z,94.12
2018-03-28T05:45:39.607Z,93.04
2018-03-28T05:48:14.648Z,92.85
2018-03-28T05:50:49.420Z,93.00
2018-03-28T05:53:24.798Z,92.58
2018-03-28T05:55:59.619Z,92.80
2018-03-28T05:58:34.402Z,92.75
2018-03-28T06:01:09.115Z,92.77
2018-03-28T06:03:44.339Z,92.92
2018-03-28T06:06:19.452Z,92.87
2018-03-28T06:08:55.360Z,92.72
2018-03-28T06:11:30.283Z,92.93
2018-03-28T06:14:04.986Z,92.49
2018-03-28T06:16:40.396Z,92.43
2018-03-28T06:19:15.258Z,92.30
2018-03-28T06:21:50.415Z,91.95
2018-03-28T06:24:25.668Z,91.76
2018-03-28T06:27:00.839Z,91.73
2018-03-28T06:29:35.942Z,92.17
2018-03-28T06:32:11.767Z,92.37
2018-03-28T06:34:46.507Z,92.30
2018-03-28T06:37:21.632Z,92.00
2018-03-28T06:39:56.579Z,91.98
2018-03-28T06:42:31.696Z,91.79
2018-03-28T06:45:06.882Z,91.42
2018-03-28T06:47:41.592Z,91.30
2018-03-28T06:50:16.701Z,90.86
2018-03-28T06:52:51.492Z,90.03
2018-03-28T06:55:26.108Z,90.22
2018-03-28T06:58:01.414Z,90.48
2018-03-28T07:00:36.558Z,90.70
2018-03-28T07:03:11.881Z,90.91
2018-03-28T07:05:46.988Z,90.84
2018-03-28T07:08:22.131Z,90.77
2018-03-28T07:10:56.862Z,90.91
2018-03-28T07:13:31.848Z,91.11
2018-03-28T07:16:06.576Z,91.43
2018-03-28T07:18:41.640Z,91.35
2018-03-28T07:21:16.591Z,91.35
2018-03-28T07:23:51.580Z,91.54
2018-03-28T07:26:26.674Z,91.34
2018-03-28T07:29:01.228Z,91.38
2018-03-28T07:31:36.116Z,91.47
2018-03-28T07:34:12.007Z,91.23
2018-03-28T07:36:46.411Z,91.00
2018-03-28T07:39:21.359Z,90.89
2018-03-28T07:41:56.522Z,91.46
2018-03-28T07:44:31.540Z,91.67
2018-03-28T07:47:06.670Z,91.56
2018-03-28T07:49:41.578Z,91.32
2018-03-28T07:52:16.607Z,90.98
2018-03-28T07:54:51.191Z,90.64
2018-03-28T07:57:26.080Z,90.05
2018-03-28T08:00:01.204Z,90.78
2018-03-28T08:02:36.393Z,90.90
2018-03-28T08:05:11.912Z,90.89
2018-03-28T08:07:46.974Z,91.02
2018-03-28T08:10:21.914Z,91.20
2018-03-28T08:12:56.712Z,91.04
2018-03-28T08:15:31.747Z,90.49
2018-03-28T08:18:06.263Z,90.66
2018-03-28T08:20:41.375Z,91.07
2018-03-28T08:23:16.812Z,91.38
2018-03-28T08:25:51.752Z,91.21
2018-03-28T08:28:26.832Z,91.22
2018-03-28T08:31:01.335Z,91.90
2018-03-28T08:33:36.588Z,91.79
2018-03-28T08:36:11.932Z,91.82
2018-03-28T08:38:47.056Z,91.57
2018-03-28T08:41:21.969Z,91.68
2018-03-28T08:43:56.959Z,91.25
2018-03-28T08:46:32.026Z,92.40
2018-03-28T08:49:06.996Z,93.01
2018-03-28T08:51:41.988Z,93.44
2018-03-28T08:54:17.109Z,94.10
2018-03-28T08:56:51.774Z,94.08
2018-03-28T08:59:26.976Z,94.11
2018-03-28T09:02:01.859Z,94.01
2018-03-28T09:04:36.804Z,94.08
2018-03-28T09:07:12.062Z,94.18
2018-03-28T09:09:47.624Z,94.44
2018-03-28T09:12:22.248Z,95.05
2018-03-28T09:14:56.978Z,94.93
2018-03-28T09:17:31.771Z,94.67
2018-03-28T09:20:07.024Z,95.12
2018-03-28T09:22:41.719Z,95.00
2018-03-28T09:25:17.266Z,93.86
2018-03-28T09:27:51.764Z,94.41
2018-03-28T09:30:26.750Z,94.41
2018-03-28T09:33:01.811Z,96.24
2018-03-28T09:35:36.767Z,96.84
2018-03-28T09:38:12.172Z,95.46
2018-03-28T09:40:47.189Z,95.30
2018-03-28T09:43:22.075Z,94.45
2018-03-28T09:45:57.040Z,93.25
2018-03-28T09:48:31.885Z,92.44
2018-03-28T09:51:06.907Z,92.42
2018-03-28T09:53:41.768Z,93.88
2018-03-28T09:56:16.904Z,94.10
2018-03-28T09:58:51.970Z,94.05
2018-03-28T10:01:29.961Z,94.44
2018-03-28T10:04:10.248Z,93.51
2018-03-28T10:06:44.644Z,93.45
2018-03-28T10:09:19.967Z,93.62
2018-03-28T10:11:55.880Z,92.70
2018-03-28T10:14:30.779Z,92.73
2018-03-28T10:17:05.067Z,92.93
2018-03-28T10:19:40.091Z,93.15
2018-03-28T10:22:14.916Z,93.05
2018-03-28T10:24:50.059Z,91.96
2018-03-28T10:27:25.015Z,91.71
2018-03-28T10:29:59.832Z,92.09
2018-03-28T10:32:34.805Z,92.47
2018-03-28T10:35:09.958Z,91.04
2018-03-28T10:37:44.515Z,90.57
2018-03-28T10:40:19.272Z,89.65
2018-03-28T10:42:53.991Z,87.76
2018-03-28T10:45:29.783Z,88.17
2018-03-28T10:48:04.863Z,88.78
2018-03-28T10:50:40.308Z,88.45
2018-03-28T10:53:15.455Z,85.67
2018-03-28T10:55:50.208Z,84.43
2018-03-28T10:58:25.280Z,84.99
2018-03-28T11:01:00.175Z,85.14
2018-03-28T11:03:35.036Z,85.30
2018-03-28T11:06:10.076Z,84.87
2018-03-28T11:08:44.980Z,84.32
2018-03-28T11:11:20.152Z,82.13
2018-03-28T11:13:54.559Z,82.33
2018-03-28T11:16:29.726Z,82.42
2018-03-28T11:19:04.537Z,82.11
2018-03-28T11:21:40.057Z,80.84
2018-03-28T11:24:14.808Z,81.34
2018-03-28T11:26:50.015Z,79.76
2018-03-28T11:29:24.539Z,80.32
2018-03-28T11:31:59.452Z,80.30
2018-03-28T11:34:34.515Z,80.15
2018-03-28T11:37:10.044Z,80.39
2018-03-28T11:39:44.972Z,79.75
2018-03-28T11:42:20.000Z,79.91
2018-03-28T11:44:55.056Z,79.31
2018-03-28T11:47:30.477Z,79.40
2018-03-28T11:50:04.846Z,79.08
2018-03-28T11:52:40.189Z,79.39
2018-03-28T11:55:15.189Z,79.52
2018-03-28T11:57:50.192Z,79.79
2018-03-28T12:00:25.119Z,79.87
2018-03-28T12:03:00.076Z,79.58
2018-03-28T12:05:35.075Z,79.54
2018-03-28T12:08:09.587Z,79.38
2018-03-28T12:10:44.556Z,79.19
2018-03-28T12:13:19.484Z,79.61
2018-03-28T12:15:54.219Z,78.89
2018-03-28T12:18:29.358Z,77.62
2018-03-28T12:21:04.182Z,77.80
2018-03-28T12:23:38.839Z,77.70
2018-03-28T12:26:14.402Z,77.05
2018-03-28T12:28:49.575Z,76.62
2018-03-28T12:31:24.334Z,77.18
2018-03-28T12:33:59.139Z,75.78
2018-03-28T12:36:33.641Z,76.56
2018-03-28T12:39:07.903Z,75.08
2018-03-28T12:41:43.126Z,74.72
2018-03-28T12:44:18.342Z,73.50
2018-03-28T12:46:53.723Z,73.83
2018-03-28T12:49:28.317Z,74.60
2018-03-28T12:52:03.354Z,74.67
2018-03-28T12:54:38.242Z,74.41
2018-03-28T12:57:12.791Z,74.64
2018-03-28T12:59:48.254Z,74.33
2018-03-28T13:02:23.466Z,74.06
2018-03-28T13:04:58.379Z,74.16
2018-03-28T13:07:32.771Z,74.31
2018-03-28T13:10:07.646Z,74.99
2018-03-28T13:12:42.385Z,75.08
2018-03-28T13:15:17.279Z,74.08
2018-03-28T13:17:52.227Z,72.76
2018-03-28T13:20:26.978Z,73.90
2018-03-28T13:23:02.425Z,73.53
2018-03-28T13:25:37.307Z,74.15
2018-03-28T13:28:12.721Z,72.88
2018-03-28T13:30:47.798Z,73.61
2018-03-28T13:33:22.747Z,74.42
2018-03-28T13:35:57.633Z,74.66
2018-03-28T13:38:32.527Z,72.05
2018-03-28T13:41:07.454Z,72.67
2018-03-28T13:43:42.168Z,72.35
2018-03-28T13:46:17.555Z,72.96
2018-03-28T13:48:52.363Z,73.24
2018-03-28T13:51:27.272Z,72.54
2018-03-28T13:54:01.752Z,72.93
2018-03-28T13:56:36.480Z,72.98
2018-03-28T13:59:12.683Z,73.14
2018-03-28T14:01:47.495Z,73.16
2018-03-28T14:04:22.648Z,74.38
2018-03-28T14:06:57.248Z,76.47
2018-03-28T14:09:32.306Z,79.76
2018-03-28T14:12:07.851Z,81.66
2018-03-28T14:14:42.871Z,82.76
2018-03-28T14:17:17.918Z,83.36
2018-03-28T14:19:52.523Z,84.03
2018-03-28T14:22:27.591Z,84.44
2018-03-28T14:25:02.516Z,84.40
2018-03-28T14:27:38.331Z,84.71
2018-03-28T14:30:12.918Z,85.08
2018-03-28T14:32:48.360Z,86.90
2018-03-28T14:35:22.873Z,88.01
2018-03-28T14:37:58.013Z,89.07
2018-03-28T14:40:33.177Z,89.89
2018-03-28T14:43:08.379Z,89.98
2018-03-28T14:45:43.530Z,89.76
2018-03-28T14:48:18.541Z,89.83
2018-03-28T14:50:58.417Z,90.22
2018-03-28T14:53:32.914Z,90.68
2018-03-28T14:56:07.684Z,91.83
2018-03-28T14:58:42.784Z,92.55
2018-03-28T15:01:17.492Z,93.11
2018-03-28T15:03:52.584Z,93.41
2018-03-28T15:06:27.892Z,93.93
2018-03-28T15:09:02.947Z,94.37
2018-03-28T15:11:37.835Z,94.31
2018-03-28T15:14:12.909Z,94.88
2018-03-28T15:16:47.741Z,94.97
2018-03-28T15:19:22.451Z,94.97
2018-03-28T15:21:57.606Z,95.09
2018-03-28T15:24:32.616Z,94.96
2018-03-28T15:27:07.612Z,95.23
2018-03-28T15:29:42.613Z,95.42
2018-03-28T15:32:17.612Z,95.62
2018-03-28T15:34:52.610Z,95.63
2018-03-28T15:37:27.718Z,95.61
2018-03-28T15:40:02.535Z,95.67
2018-03-28T15:42:37.592Z,94.97
2018-03-28T15:45:12.987Z,94.68
2018-03-28T15:47:48.108Z,92.38
2018-03-28T15:50:23.108Z,92.02
2018-03-28T15:52:58.556Z,92.21
2018-03-28T15:55:33.984Z,92.29
2018-03-28T15:58:08.766Z,92.34
2018-03-28T16:00:43.976Z,91.68
2018-03-28T16:06:19.215Z,90.96
2018-03-28T16:08:53.987Z,91.03
2018-03-28T16:11:29.155Z,90.97
2018-03-28T16:14:03.776Z,91.66
2018-03-28T16:16:38.843Z,91.45
2018-03-28T16:19:13.655Z,91.09
2018-03-28T16:21:48.728Z,91.28
2018-03-28T16:24:23.624Z,91.79
2018-03-28T16:26:58.406Z,91.69
2018-03-28T16:29:33.251Z,91.12
2018-03-28T16:32:08.239Z,91.39
2018-03-28T16:34:43.019Z,91.27
2018-03-28T16:37:18.125Z,92.28
2018-03-28T16:39:52.742Z,93.24
2018-03-28T16:42:27.772Z,94.06
2018-03-28T16:45:02.196Z,94.51
2018-03-28T16:47:37.660Z,94.91
2018-03-28T16:50:12.997Z,95.10
2018-03-28T16:52:47.840Z,95.66
2018-03-28T16:55:22.879Z,96.38
2018-03-28T16:57:57.685Z,96.95
2018-03-28T17:00:32.612Z,97.29
2018-03-28T17:03:07.985Z,97.54
2018-03-28T17:05:42.895Z,97.58
2018-03-28T17:08:18.037Z,97.50
2018-03-28T17:10:52.819Z,98.01
2018-03-28T17:13:27.834Z,98.13
2018-03-28T17:16:02.694Z,97.99
2018-03-28T17:18:37.775Z,98.20
2018-03-28T17:21:15.083Z,98.68
2018-03-28T17:23:50.307Z,98.96
2018-03-28T17:26:26.093Z,98.83
2018-03-28T17:29:00.916Z,98.86
2018-03-28T17:31:35.704Z,99.38
2018-03-28T17:34:10.836Z,99.18
2018-03-28T17:36:45.843Z,98.66
2018-03-28T17:39:20.504Z,98.55
2018-03-28T17:41:55.259Z,98.24
2018-03-28T17:44:30.163Z,97.64
2018-03-28T17:47:05.012Z,97.20
2018-03-28T17:49:40.117Z,97.10
2018-03-28T17:52:14.816Z,97.86
2018-03-28T17:54:49.931Z,98.37
2018-03-28T17:57:28.480Z,98.76
2018-03-28T18:00:03.144Z,98.85
2018-03-28T18:02:38.705Z,98.79
2018-03-28T18:05:13.551Z,99.50
2018-03-28T18:07:48.407Z,99.09
2018-03-28T18:10:23.823Z,99.39
2018-03-28T18:12:58.898Z,99.68
2018-03-28T18:15:33.839Z,99.85
2018-03-28T18:18:08.866Z,100.00
2018-03-28T18:20:43.763Z,100.00
2018-03-28T18:23:18.634Z,100.00
2018-03-28T18:25:53.407Z,100.00
2018-03-28T18:28:28.516Z,100.00
2018-03-28T18:31:03.927Z,100.00
2018-03-28T18:33:39.415Z,100.00
2018-03-28T18:36:14.347Z,100.00
2018-03-28T18:38:49.351Z,100.00
2018-03-28T18:41:24.492Z,100.00
2018-03-28T18:43:59.095Z,100.00
2018-03-28T18:46:36.068Z,100.00
2018-03-28T18:49:10.993Z,100.00
2018-03-28T18:51:45.730Z,100.00
2018-03-28T18:54:20.681Z,100.00
2018-03-28T18:56:55.358Z,100.00
2018-03-28T18:59:30.731Z,100.00
2018-03-28T19:02:04.937Z,100.00
2018-03-28T19:04:40.039Z,100.00
2018-03-28T19:07:14.922Z,100.00
2018-03-28T19:09:49.979Z,100.00
2018-03-28T19:12:24.566Z,100.00
2018-03-28T19:14:59.424Z,100.00
2018-03-28T19:17:34.427Z,100.00
2018-03-28T19:20:09.287Z,100.00
2018-03-28T19:22:44.155Z,100.00
2018-03-28T19:25:19.213Z,100.00
2018-03-28T19:27:54.121Z,100.00
2018-03-28T19:30:29.708Z,100.00
2018-03-28T19:33:04.625Z,100.00
2018-03-28T19:35:40.020Z,100.00
2018-03-28T19:38:15.304Z,100.00
2018-03-28T19:40:50.183Z,100.00
2018-03-28T19:43:24.650Z,100.00
2018-03-28T19:45:59.142Z,100.00
2018-03-28T19:48:34.935Z,100.00
2018-03-28T19:51:10.012Z,100.00
2018-03-28T19:53:44.522Z,100.00
2018-03-28T19:56:19.535Z,99.96
2018-03-28T19:58:54.623Z,99.68
2018-03-28T20:01:30.142Z,99.44
2018-03-28T20:04:05.150Z,99.18
2018-03-28T20:06:40.135Z,98.98
2018-03-28T20:09:14.644Z,99.05
2018-03-28T20:11:49.816Z,98.90
2018-03-28T20:14:25.306Z,98.70
2018-03-28T20:17:00.210Z,98.78
2018-03-28T20:19:35.184Z,99.06
2018-03-28T20:22:10.347Z,99.31
2018-03-28T20:24:45.178Z,99.62
2018-03-28T20:27:19.768Z,99.98
2018-03-28T20:29:55.295Z,100.00
2018-03-28T20:32:30.345Z,100.00
2018-03-28T20:35:05.400Z,100.00
2018-03-28T20:37:40.384Z,99.94
2018-03-28T20:40:15.875Z,99.82
2018-03-28T20:42:50.803Z,99.90
2018-03-28T20:45:25.363Z,100.00
2018-03-28T20:47:59.841Z,100.00
2018-03-28T20:50:34.781Z,100.00
2018-03-28T20:53:10.258Z,99.85
2018-03-28T20:55:45.344Z,99.17
2018-03-28T20:58:20.283Z,99.19
2018-03-28T21:00:54.910Z,99.24
2018-03-28T21:03:29.451Z,98.93
2018-03-28T21:06:03.875Z,97.65
2018-03-28T21:08:38.595Z,97.31
2018-03-28T21:11:13.394Z,97.49
2018-03-28T21:13:48.431Z,97.60
2018-03-28T21:16:23.341Z,97.72
2018-03-28T21:18:58.419Z,97.74
2018-03-28T21:21:33.423Z,97.40
2018-03-28T21:24:09.043Z,97.24
2018-03-28T21:26:43.871Z,97.03
2018-03-28T21:29:19.053Z,96.75
2018-03-28T21:31:53.641Z,96.70
2018-03-28T21:34:28.692Z,96.50
2018-03-28T21:37:03.559Z,96.37
2018-03-28T21:39:38.484Z,96.53
2018-03-28T21:42:13.809Z,96.65
2018-03-28T21:44:48.779Z,96.79
2018-03-28T21:47:23.529Z,96.88
2018-03-28T21:49:58.562Z,96.80
2018-03-28T21:52:33.961Z,96.73
2018-03-28T21:55:08.619Z,96.22
2018-03-28T21:57:43.534Z,96.15
2018-03-28T22:00:18.395Z,96.20
2018-03-28T22:03:01.166Z,96.24
2018-03-28T22:05:38.693Z,95.93
2018-03-28T22:08:13.843Z,95.43
2018-03-28T22:10:48.979Z,95.26
2018-03-28T22:13:23.907Z,94.18
2018-03-28T22:15:58.830Z,94.43
2018-03-28T22:18:33.537Z,96.59
2018-03-28T22:21:08.455Z,98.24
2018-03-28T22:23:43.115Z,98.99
2018-03-28T22:26:17.706Z,99.73
2018-03-28T22:28:52.682Z,100.00
2018-03-28T22:31:27.754Z,99.91
2018-03-28T22:34:02.564Z,99.60
2018-03-28T22:36:37.519Z,99.55
2018-03-28T22:39:13.920Z,99.98
2018-03-28T22:41:49.494Z,99.60
2018-03-28T22:44:24.068Z,99.40
2018-03-28T22:46:59.190Z,98.59
2018-03-28T22:49:34.098Z,98.22
2018-03-28T22:52:09.042Z,98.15
2018-03-28T22:54:44.202Z,96.75
2018-03-28T22:57:19.196Z,95.98
2018-03-28T22:59:53.796Z,95.08
2018-03-28T23:02:28.880Z,96.05
2018-03-28T23:05:03.561Z,96.53
2018-03-28T23:07:39.182Z,96.82
2018-03-28T23:10:14.484Z,96.82
2018-03-28T23:12:49.183Z,97.08
2018-03-28T23:15:23.970Z,97.41
2018-03-28T23:17:58.854Z,97.01
2018-03-28T23:20:33.675Z,97.05
2018-03-28T23:23:09.191Z,96.91
2018-03-28T23:25:43.966Z,96.97
2018-03-28T23:28:18.594Z,96.95
2018-03-28T23:30:53.389Z,97.36
2018-03-28T23:33:28.050Z,97.16
2018-03-28T23:36:03.052Z,97.04
2018-03-28T23:38:37.751Z,97.56
2018-03-28T23:41:13.934Z,97.78
2018-03-28T23:43:48.727Z,96.99
2018-03-28T23:46:23.719Z,97.03
2018-03-28T23:48:58.639Z,97.67
2018-03-28T23:51:33.714Z,97.46
2018-03-28T23:54:08.716Z,97.13
2018-03-28T23:56:44.118Z,97.17
2018-03-28T23:59:19.074Z,97.54
